Time;durP1;ratioP1;P1;durP2;ratioP2;P2;SDS_P1;SDS_P2;PMS_P1;PMS_P2;Temp;Humidity;BMP_temperature;BMP_pressure;BME280_temperature;BME280_humidity;BME280_pressure;Samples;Min_cycle;Max_cycle;Signal;HPM_P1;HPM_P2
2021/12/08 00:01:10;;;;;;;58.13;37.92;;;17.90;92.00;;;;;;4161752;28;20069;-68
2021/12/08 00:03:14;;;;;;;53.45;36.95;;;17.90;92.00;;;;;;4160483;28;20588;-68
2021/12/08 00:05:20;;;;;;;58.22;37.33;;;17.80;92.10;;;;;;4136015;28;20053;-68
2021/12/08 00:07:25;;;;;;;51.33;37.50;;;17.70;92.40;;;;;;4160598;28;20037;-68
2021/12/08 00:09:46;;;;;;;63.83;39.13;;;17.80;92.40;;;;;;4161074;28;20504;-68
2021/12/08 00:14:10;;;;;;;54.67;36.58;;;17.80;92.30;;;;;;4156616;28;20450;-68
2021/12/08 00:16:15;;;;;;;57.08;36.60;;;17.80;92.50;;;;;;4160929;28;20148;-68
2021/12/08 00:18:24;;;;;;;51.92;36.65;;;17.70;92.70;;;;;;4157173;28;20518;-68
2021/12/08 00:20:31;;;;;;;48.58;36.35;;;17.90;92.40;;;;;;4155731;28;20057;-68
2021/12/08 00:22:36;;;;;;;59.28;37.55;;;17.90;92.30;;;;;;4156120;28;20045;-68
2021/12/08 00:24:41;;;;;;;52.53;38.10;;;17.90;92.30;;;;;;4156486;28;20049;-68
2021/12/08 00:26:45;;;;;;;53.58;38.78;;;18.00;92.70;;;;;;4161208;28;20041;-68
2021/12/08 00:28:50;;;;;;;57.75;39.30;;;17.90;92.60;;;;;;4159945;28;20100;-68
2021/12/08 00:31:00;;;;;;;56.20;37.42;;;17.80;92.90;;;;;;4159145;28;20050;-68
2021/12/08 00:33:06;;;;;;;56.78;36.50;;;18.00;92.60;;;;;;4161816;28;20057;-68
2021/12/08 00:35:11;;;;;;;58.97;35.95;;;18.10;92.40;;;;;;4161263;28;20053;-68
2021/12/08 00:37:15;;;;;;;49.78;36.05;;;18.20;92.30;;;;;;4161407;28;20530;-68
2021/12/08 00:39:23;;;;;;;48.38;34.65;;;18.10;92.40;;;;;;4161374;28;20053;-68
2021/12/08 00:41:31;;;;;;;48.33;34.97;;;18.20;92.30;;;;;;4161351;28;20492;-68
2021/12/08 00:43:36;;;;;;;49.33;36.33;;;18.30;92.10;;;;;;4164431;28;20042;-68
2021/12/08 00:45:42;;;;;;;50.63;34.28;;;18.20;92.30;;;;;;4164390;28;20056;-68
2021/12/08 00:47:49;;;;;;;46.38;33.85;;;18.30;92.20;;;;;;4163882;28;20502;-68
2021/12/08 00:49:54;;;;;;;49.15;35.38;;;18.30;92.20;;;;;;4162719;28;20257;-68
2021/12/08 00:52:02;;;;;;;48.47;33.05;;;18.40;92.20;;;;;;4163512;28;20467;-67
2021/12/08 00:54:08;;;;;;;49.88;33.40;;;18.40;92.00;;;;;;4164007;28;20057;-68
2021/12/08 00:56:15;;;;;;;48.65;32.95;;;18.40;92.20;;;;;;4163643;28;20042;-68
2021/12/08 00:58:21;;;;;;;56.13;33.35;;;18.50;92.30;;;;;;4159769;28;20484;-68
2021/12/08 01:00:32;;;;;;;50.35;32.60;;;18.60;91.90;;;;;;4163623;28;20504;-68
2021/12/08 01:02:39;;;;;;;53.50;34.28;;;18.70;91.90;;;;;;4164279;28;20484;-68
2021/12/08 01:04:43;;;;;;;40.42;32.15;;;18.70;91.60;;;;;;4163591;28;21141;-68
2021/12/08 01:06:49;;;;;;;41.83;32.20;;;18.80;91.60;;;;;;4162476;28;20188;-68
2021/12/08 01:08:53;;;;;;;42.60;31.40;;;18.80;91.80;;;;;;4164783;28;20052;-68
2021/12/08 01:11:05;;;;;;;48.13;31.83;;;18.90;91.40;;;;;;4162580;28;20128;-68
2021/12/08 01:13:11;;;;;;;40.97;31.58;;;19.10;91.20;;;;;;4147083;28;20172;-68
2021/12/08 01:15:16;;;;;;;47.33;32.08;;;19.10;90.80;;;;;;4147982;28;20447;-68
2021/12/08 01:17:21;;;;;;;46.92;31.33;;;19.20;90.40;;;;;;4164304;28;20060;-68
2021/12/08 01:19:25;;;;;;;44.65;30.52;;;19.20;90.40;;;;;;4163845;28;20511;-68
2021/12/08 01:21:30;;;;;;;43.83;31.70;;;19.30;90.20;;;;;;4163765;28;20499;-68
2021/12/08 01:23:36;;;;;;;43.05;30.23;;;19.30;90.10;;;;;;4163449;28;20053;-67
2021/12/08 01:25:41;;;;;;;41.55;30.17;;;19.40;90.70;;;;;;4163364;28;20055;-67
2021/12/08 01:27:45;;;;;;;47.20;30.48;;;19.40;89.30;;;;;;4163102;28;20060;-67
2021/12/08 01:29:50;;;;;;;40.80;30.55;;;19.40;89.30;;;;;;4163410;28;20061;-67
2021/12/08 01:31:55;;;;;;;48.55;30.60;;;19.50;89.40;;;;;;4163414;28;20061;-67
2021/12/08 01:34:00;;;;;;;43.25;29.92;;;19.60;89.10;;;;;;4163566;28;20428;-67
2021/12/08 01:36:05;;;;;;;41.53;29.25;;;19.60;88.80;;;;;;4163322;28;20093;-67
2021/12/08 01:38:17;;;;;;;39.83;29.15;;;19.60;88.70;;;;;;4163420;28;20081;-67
2021/12/08 01:40:26;;;;;;;46.05;29.58;;;19.70;88.70;;;;;;4162800;28;20092;-67
2021/12/08 01:42:36;;;;;;;41.20;28.60;;;19.70;89.20;;;;;;4163550;28;20511;-67
2021/12/08 01:47:03;;;;;;;38.20;27.13;;;19.80;88.50;;;;;;4146618;28;20104;-67
2021/12/08 01:49:10;;;;;;;39.42;27.50;;;19.80;88.30;;;;;;4155869;28;20048;-67
2021/12/08 01:51:18;;;;;;;44.33;27.08;;;19.90;88.60;;;;;;4163250;28;20054;-67
2021/12/08 01:53:25;;;;;;;41.63;27.65;;;20.00;88.50;;;;;;4163089;28;20049;-67
2021/12/08 01:55:30;;;;;;;38.35;28.30;;;20.00;88.30;;;;;;4146922;28;20416;-67
2021/12/08 01:57:38;;;;;;;34.50;25.75;;;20.00;88.40;;;;;;4159156;28;20285;-67
2021/12/08 01:59:43;;;;;;;32.55;24.85;;;20.10;87.90;;;;;;4161798;28;20041;-67
2021/12/08 02:01:47;;;;;;;35.75;25.42;;;20.10;86.70;;;;;;4162858;28;20049;-67
2021/12/08 02:03:52;;;;;;;36.42;24.55;;;20.20;85.70;;;;;;4163308;28;20537;-67
2021/12/08 02:05:58;;;;;;;32.35;24.50;;;20.20;85.60;;;;;;4162673;28;20068;-67
2021/12/08 02:08:08;;;;;;;29.90;22.50;;;20.30;86.30;;;;;;4161693;28;20056;-67
2021/12/08 02:10:17;;;;;;;41.03;24.40;;;20.50;85.30;;;;;;4160993;28;20050;-67
2021/12/08 02:12:42;;;;;;;34.15;23.58;;;20.50;85.00;;;;;;4163077;28;20057;-67
2021/12/08 02:14:59;;;;;;;30.58;23.23;;;20.70;84.50;;;;;;4126135;28;20367;-65
2021/12/08 02:17:10;;;;;;;34.55;22.60;;;20.70;84.30;;;;;;4111906;28;20043;-65
2021/12/08 02:19:15;;;;;;;34.40;23.48;;;20.80;83.30;;;;;;4127975;28;20401;-65
2021/12/08 02:21:25;;;;;;;29.42;23.63;;;20.80;83.70;;;;;;4126492;28;20069;-67
2021/12/08 02:23:31;;;;;;;33.85;23.23;;;20.90;84.10;;;;;;4128156;28;20509;-64
2021/12/08 02:25:36;;;;;;;30.60;22.25;;;21.00;84.10;;;;;;4127623;28;20520;-64
2021/12/08 02:27:40;;;;;;;31.10;21.52;;;21.00;82.50;;;;;;4129426;28;20162;-64
2021/12/08 02:29:54;;;;;;;28.50;21.23;;;21.10;83.20;;;;;;4119573;28;20263;-64
2021/12/08 02:48:04;;;;;;;34.05;20.23;;;21.60;80.10;;;;;;4162700;28;20049;-64
2021/12/08 02:50:09;;;;;;;31.70;20.50;;;21.60;79.90;;;;;;4162695;28;20061;-65
2021/12/08 02:52:14;;;;;;;35.67;20.65;;;21.60;80.10;;;;;;4161990;28;20060;-66
2021/12/08 02:54:19;;;;;;;39.97;20.98;;;21.70;80.00;;;;;;4162418;28;20129;-64
2021/12/08 02:56:24;;;;;;;34.38;19.70;;;21.80;79.50;;;;;;4161606;28;20092;-66
2021/12/08 02:58:30;;;;;;;28.50;19.23;;;21.80;79.60;;;;;;4163111;28;20148;-66
2021/12/08 03:00:38;;;;;;;28.70;19.20;;;21.90;78.60;;;;;;4158780;28;20037;-64
2021/12/08 03:02:44;;;;;;;27.45;19.25;;;21.90;79.00;;;;;;4160503;28;20034;-66
2021/12/08 03:04:49;;;;;;;25.85;17.85;;;21.90;78.20;;;;;;4158254;28;20048;-66
2021/12/08 03:06:54;;;;;;;26.63;19.10;;;22.00;78.30;;;;;;4162206;28;20519;-66
2021/12/08 03:09:09;;;;;;;29.20;18.90;;;22.00;78.10;;;;;;4161439;28;20061;-66
2021/12/08 03:11:15;;;;;;;33.13;19.08;;;22.20;78.20;;;;;;4152243;28;20045;-65
2021/12/08 03:13:33;;;;;;;27.67;17.95;;;22.20;78.10;;;;;;4160108;28;20063;-63
2021/12/08 03:15:39;;;;;;;27.48;17.98;;;22.20;78.00;;;;;;4157853;28;20053;-68
2021/12/08 03:17:51;;;;;;;29.35;16.92;;;22.30;76.90;;;;;;4162300;28;20049;-69
2021/12/08 03:20:09;;;;;;;30.83;17.85;;;22.30;77.00;;;;;;4154594;28;20132;-66
2021/12/08 03:22:18;;;;;;;22.90;18.48;;;22.40;77.00;;;;;;4161530;28;20080;-67
2021/12/08 03:26:32;;;;;;;25.85;15.82;;;22.60;75.10;;;;;;4161848;28;20690;-67
2021/12/08 03:28:43;;;;;;;27.63;16.48;;;22.60;75.30;;;;;;4161986;28;20111;-67
2021/12/08 03:30:59;;;;;;;22.15;16.48;;;22.70;76.20;;;;;;4159057;28;20421;-66
2021/12/08 03:33:03;;;;;;;22.98;16.85;;;22.80;75.10;;;;;;4157624;28;20103;-66
2021/12/08 03:35:11;;;;;;;23.15;15.40;;;22.70;75.30;;;;;;4158420;28;20060;-66
2021/12/08 03:37:17;;;;;;;20.75;13.73;;;22.90;74.40;;;;;;4159261;28;20077;-66
2021/12/08 03:39:22;;;;;;;20.08;14.07;;;22.90;74.20;;;;;;4159621;28;20073;-66
2021/12/08 03:41:31;;;;;;;18.92;14.10;;;22.90;73.40;;;;;;4158806;28;20050;-67
2021/12/08 03:43:36;;;;;;;19.50;14.63;;;22.90;74.10;;;;;;4159154;28;20115;-66
2021/12/08 03:45:45;;;;;;;22.48;15.60;;;22.90;73.90;;;;;;4159195;28;20590;-66
2021/12/08 03:47:58;;;;;;;22.08;15.73;;;22.90;74.80;;;;;;4158865;28;20156;-68
2021/12/08 03:50:03;;;;;;;20.25;14.07;;;23.00;73.90;;;;;;4157025;28;20425;-68
2021/12/08 03:52:08;;;;;;;24.40;14.27;;;23.20;72.20;;;;;;4158531;28;20318;-68
2021/12/08 03:54:13;;;;;;;23.92;14.27;;;23.10;72.00;;;;;;4158561;28;20156;-68
2021/12/08 03:56:18;;;;;;;19.10;13.82;;;23.10;72.10;;;;;;4158283;28;20103;-67
2021/12/08 03:58:23;;;;;;;21.77;14.50;;;23.10;72.50;;;;;;4157878;28;20071;-67
2021/12/08 04:00:29;;;;;;;29.38;13.82;;;23.10;72.60;;;;;;4158732;28;20041;-66
2021/12/08 04:02:33;;;;;;;18.83;13.65;;;23.40;72.00;;;;;;4159264;28;20049;-67
2021/12/08 04:04:49;;;;;;;22.63;13.85;;;23.40;71.40;;;;;;4159460;28;20125;-67
2021/12/08 04:06:54;;;;;;;18.63;12.80;;;23.40;71.60;;;;;;4158799;28;20049;-67
2021/12/08 04:09:01;;;;;;;21.98;13.13;;;23.40;71.60;;;;;;4159022;28;20049;-67
2021/12/08 04:11:06;;;;;;;15.70;11.73;;;23.60;71.60;;;;;;4158953;28;20045;-66
2021/12/08 04:13:11;;;;;;;22.20;12.30;;;23.70;70.00;;;;;;4158164;28;20068;-66
2021/12/08 04:15:15;;;;;;;18.45;11.77;;;23.70;70.00;;;;;;4159209;28;20069;-66
2021/12/08 04:17:24;;;;;;;17.83;12.13;;;23.70;70.80;;;;;;4158963;28;20129;-68
2021/12/08 04:19:29;;;;;;;20.48;11.85;;;23.80;69.90;;;;;;4162162;28;20052;-67
2021/12/08 04:21:34;;;;;;;18.92;12.02;;;23.80;70.00;;;;;;4164467;28;20099;-67
2021/12/08 04:23:40;;;;;;;20.67;11.70;;;23.70;69.90;;;;;;4164134;28;20061;-68
2021/12/08 04:25:48;;;;;;;19.75;11.88;;;23.80;69.00;;;;;;4164688;28;20416;-67
2021/12/08 04:27:54;;;;;;;18.55;11.55;;;23.90;69.00;;;;;;4170205;28;20085;-66
2021/12/08 04:30:00;;;;;;;15.40;11.35;;;23.80;69.00;;;;;;4162224;28;20053;-66
2021/12/08 04:32:05;;;;;;;16.63;11.38;;;23.90;69.30;;;;;;4161760;28;20084;-66
2021/12/08 04:34:15;;;;;;;29.80;12.82;;;24.10;69.30;;;;;;4161678;28;20049;-67
2021/12/08 04:36:21;;;;;;;24.58;11.80;;;24.10;68.90;;;;;;4161892;28;20140;-67
2021/12/08 04:38:33;;;;;;;17.58;11.93;;;24.20;68.40;;;;;;4162314;28;20045;-67
2021/12/08 04:45:20;;;;;;;23.05;14.52;;;24.20;67.70;;;;;;4160537;28;20091;-68
2021/12/08 05:08:16;;;;;;;19.38;12.82;;;24.80;65.90;;;;;;4161254;28;20057;-67
2021/12/08 05:10:31;;;;;;;18.45;13.13;;;24.80;66.20;;;;;;4161473;28;20062;-67
2021/12/08 05:12:36;;;;;;;18.98;11.13;;;24.90;66.40;;;;;;4160387;28;20053;-68
2021/12/08 05:14:42;;;;;;;17.23;10.57;;;24.80;66.60;;;;;;4161552;28;20046;-68
2021/12/08 05:16:48;;;;;;;14.77;9.73;;;24.90;66.90;;;;;;4161020;28;20551;-68
2021/12/08 05:18:54;;;;;;;16.75;9.38;;;25.00;65.70;;;;;;4161441;28;20099;-68
2021/12/08 05:21:08;;;;;;;15.43;8.48;;;25.10;65.50;;;;;;4161416;28;20045;-68
2021/12/08 05:23:16;;;;;;;10.57;7.90;;;25.00;65.60;;;;;;4160942;28;20063;-68
2021/12/08 05:25:24;;;;;;;13.35;8.32;;;25.00;66.00;;;;;;4161211;28;21271;-68
2021/12/08 05:27:39;;;;;;;12.13;8.43;;;25.00;66.10;;;;;;4170748;28;20067;-67
2021/12/08 05:29:52;;;;;;;12.50;7.82;;;25.10;65.60;;;;;;4157978;28;20095;-68
2021/12/08 05:31:58;;;;;;;13.05;8.13;;;25.10;65.90;;;;;;4160707;28;20053;-67
2021/12/08 05:34:02;;;;;;;11.82;8.32;;;25.10;65.10;;;;;;4161094;28;20057;-68
2021/12/08 05:36:08;;;;;;;13.60;8.98;;;25.10;65.70;;;;;;4161223;28;20049;-67
2021/12/08 05:38:14;;;;;;;16.90;8.95;;;25.20;66.10;;;;;;4161106;28;20045;-68
2021/12/08 05:40:39;;;;;;;18.33;9.02;;;25.30;65.90;;;;;;4160766;28;20049;-69
2021/12/08 05:42:44;;;;;;;11.70;8.85;;;25.50;65.70;;;;;;4160920;28;20049;-69
2021/12/08 05:44:49;;;;;;;16.92;8.95;;;25.40;65.20;;;;;;4160883;28;20343;-69
2021/12/08 05:46:55;;;;;;;16.63;8.68;;;25.30;65.20;;;;;;4160758;28;20056;-69
2021/12/08 05:49:01;;;;;;;17.02;8.90;;;25.40;65.20;;;;;;4160208;28;20053;-69
2021/12/08 05:51:10;;;;;;;16.13;8.85;;;25.40;65.30;;;;;;4160701;28;20041;-69
2021/12/08 05:53:14;;;;;;;12.75;8.38;;;25.50;65.30;;;;;;4160406;28;20091;-69
2021/12/08 05:55:20;;;;;;;10.05;7.75;;;25.50;65.50;;;;;;4160716;28;20049;-69
2021/12/08 05:57:29;;;;;;;10.60;8.15;;;25.50;65.30;;;;;;4169091;28;20045;-68
2021/12/08 05:59:34;;;;;;;13.27;8.20;;;25.50;65.20;;;;;;4160632;28;20048;-68
2021/12/08 06:01:46;;;;;;;14.73;8.18;;;25.60;65.80;;;;;;4160970;28;20053;-68
2021/12/08 06:03:50;;;;;;;11.77;7.63;;;25.60;66.00;;;;;;4159513;28;20132;-68
2021/12/08 06:05:55;;;;;;;13.40;6.75;;;25.60;66.50;;;;;;4160951;28;20119;-67
2021/12/08 06:08:00;;;;;;;13.80;8.85;;;25.60;66.80;;;;;;4163407;28;20049;-68
2021/12/08 06:10:08;;;;;;;12.27;8.15;;;25.60;66.50;;;;;;4162928;28;20466;-68
2021/12/08 06:12:13;;;;;;;14.35;8.60;;;25.60;66.50;;;;;;4162878;28;20045;-69
2021/12/08 06:14:21;;;;;;;13.30;8.50;;;25.60;66.80;;;;;;4162861;28;20063;-69
2021/12/08 06:16:27;;;;;;;12.15;8.68;;;25.70;66.80;;;;;;4162398;28;20307;-69
2021/12/08 06:18:39;;;;;;;12.18;8.60;;;25.70;66.80;;;;;;4162095;28;20049;-69
2021/12/08 06:20:44;;;;;;;16.70;8.18;;;25.70;66.80;;;;;;4161448;28;20045;-68
2021/12/08 06:22:48;;;;;;;11.68;8.75;;;25.70;67.00;;;;;;4158262;28;20446;-68
2021/12/08 06:24:53;;;;;;;14.63;8.57;;;25.80;67.60;;;;;;4162830;28;20381;-69
2021/12/08 06:27:02;;;;;;;11.98;8.95;;;25.80;67.40;;;;;;4168600;28;20044;-69
2021/12/08 06:29:07;;;;;;;12.55;9.40;;;25.90;67.60;;;;;;4179362;28;20049;-69
2021/12/08 06:31:12;;;;;;;13.23;9.20;;;25.90;67.60;;;;;;4179150;28;20055;-69
2021/12/08 06:33:20;;;;;;;11.45;8.38;;;25.90;67.20;;;;;;4177973;28;20570;-69
2021/12/08 06:35:29;;;;;;;15.15;9.25;;;25.90;67.30;;;;;;4174254;28;20041;-69
2021/12/08 06:37:44;;;;;;;16.95;8.15;;;25.80;67.10;;;;;;4162259;28;20096;-69
2021/12/08 06:40:09;;;;;;;20.30;8.80;;;25.80;67.30;;;;;;4161921;28;20120;-69
2021/12/08 06:42:22;;;;;;;13.13;8.90;;;26.00;67.30;;;;;;4162570;28;20049;-69
2021/12/08 06:44:33;;;;;;;11.85;8.05;;;26.00;67.60;;;;;;4162549;28;20428;-69
2021/12/08 06:46:39;;;;;;;13.90;8.80;;;26.00;67.40;;;;;;4162173;28;20208;-69
2021/12/08 06:48:47;;;;;;;18.40;9.02;;;26.00;67.20;;;;;;4162613;28;20051;-69
2021/12/08 06:50:58;;;;;;;13.43;9.18;;;25.90;67.50;;;;;;4162495;28;20057;-68
2021/12/08 06:53:07;;;;;;;;;;;25.90;67.30;;;;;;4162338;28;20596;-69
2021/12/08 06:55:26;;;;;;;12.00;8.90;;;26.00;67.20;;;;;;4162420;28;19921;-69
2021/12/08 06:57:43;;;;;;;13.10;8.95;;;26.00;67.50;;;;;;4172092;28;20537;-69
2021/12/08 06:59:59;;;;;;;21.73;9.05;;;26.00;67.90;;;;;;4170962;28;20388;-69
2021/12/08 07:02:13;;;;;;;14.13;9.93;;;26.00;67.70;;;;;;4162310;28;20049;-69
2021/12/08 07:04:51;;;;;;;15.23;9.45;;;26.10;67.70;;;;;;4159787;28;20052;-69
2021/12/08 07:07:12;;;;;;;17.30;10.02;;;26.20;67.60;;;;;;4162044;28;20049;-69
2021/12/08 07:09:26;;;;;;;12.57;8.98;;;26.20;67.40;;;;;;4162295;28;20083;-68
2021/12/08 07:11:30;;;;;;;;;;;26.10;67.70;;;;;;4162389;28;20077;-69
2021/12/08 07:13:36;;;;;;;10.90;9.50;;;26.10;67.60;;;;;;4161038;28;20392;-69
2021/12/08 07:16:05;;;;;;;16.20;9.38;;;26.10;67.30;;;;;;4145768;28;20513;-69
2021/12/08 07:18:18;;;;;;;19.02;9.95;;;26.20;67.80;;;;;;4152880;28;20080;-69
2021/12/08 07:22:48;;;;;;;15.80;9.68;;;26.40;67.60;;;;;;4162123;28;20516;-69
2021/12/08 07:25:00;;;;;;;18.45;9.57;;;26.40;67.90;;;;;;4161852;28;20041;-69
2021/12/08 07:27:13;;;;;;;12.38;8.98;;;26.40;67.00;;;;;;4161505;28;20120;-68
2021/12/08 07:29:21;;;;;;;13.88;9.45;;;26.40;67.20;;;;;;4161339;28;20049;-68
2021/12/08 07:31:30;;;;;;;12.90;9.20;;;26.40;67.20;;;;;;4161709;28;20065;-68
2021/12/08 07:33:37;;;;;;;16.55;9.68;;;26.30;67.00;;;;;;4161821;28;20227;-69
2021/12/08 07:35:46;;;;;;;12.43;9.13;;;26.30;67.20;;;;;;4161386;28;20041;-69
2021/12/08 07:37:51;;;;;;;15.57;9.13;;;26.30;67.40;;;;;;4161700;28;20037;-68
2021/12/08 07:40:07;;;;;;;13.07;8.45;;;26.30;67.50;;;;;;4161658;28;20050;-69
2021/12/08 07:42:26;;;;;;;14.50;9.23;;;26.50;68.00;;;;;;4161844;28;20116;-69
2021/12/08 07:44:31;;;;;;;16.40;9.05;;;26.50;66.90;;;;;;4161393;28;20076;-69
2021/12/08 07:46:48;;;;;;;12.55;7.70;;;26.40;67.20;;;;;;4161791;28;20041;-68
2021/12/08 07:48:58;;;;;;;13.75;8.15;;;26.70;66.70;;;;;;4161882;28;20049;-69
2021/12/08 07:51:06;;;;;;;15.07;8.20;;;26.70;66.60;;;;;;4162518;28;20400;-69
2021/12/08 07:53:12;;;;;;;17.52;8.70;;;26.60;67.30;;;;;;4165006;28;20049;-69
2021/12/08 07:55:20;;;;;;;15.27;8.93;;;26.60;66.80;;;;;;4165314;28;20052;-67
2021/12/08 07:57:27;;;;;;;10.30;8.10;;;26.60;67.10;;;;;;4165018;28;20053;-68
2021/12/08 07:59:32;;;;;;;13.70;7.60;;;26.50;67.10;;;;;;4164941;28;20041;-69
2021/12/08 08:01:41;;;;;;;10.70;7.20;;;26.60;67.10;;;;;;4165091;28;20046;-69
2021/12/08 08:03:48;;;;;;;12.18;7.20;;;26.60;66.30;;;;;;4165075;28;20049;-68
2021/12/08 08:05:53;;;;;;;13.48;8.05;;;26.70;66.40;;;;;;4163900;28;20064;-68
2021/12/08 08:08:02;;;;;;;11.45;8.27;;;26.60;67.10;;;;;;4164944;28;20064;-68
2021/12/08 08:10:13;;;;;;;15.10;8.30;;;26.50;67.60;;;;;;4164424;28;20468;-68
2021/12/08 08:12:21;;;;;;;12.82;7.93;;;26.60;67.20;;;;;;4164742;28;20492;-68
2021/12/08 08:14:34;;;;;;;9.70;7.85;;;26.50;66.70;;;;;;4164363;28;20046;-69
2021/12/08 08:16:39;;;;;;;11.88;8.05;;;26.50;66.40;;;;;;4164519;28;20084;-69
2021/12/08 08:18:51;;;;;;;13.95;7.72;;;26.50;66.80;;;;;;4160989;28;20072;-69
2021/12/08 08:20:58;;;;;;;10.35;7.45;;;26.50;67.00;;;;;;4164150;28;20075;-69
2021/12/08 08:23:03;;;;;;;12.95;8.20;;;26.50;67.00;;;;;;4164409;28;20523;-69
2021/12/08 08:25:08;;;;;;;11.45;7.82;;;26.50;67.40;;;;;;4164166;28;20045;-68
2021/12/08 08:27:15;;;;;;;12.38;8.02;;;26.50;67.10;;;;;;4164399;28;20500;-68
2021/12/08 08:29:20;;;;;;;17.00;8.18;;;26.50;67.00;;;;;;4164337;28;20048;-68
2021/12/08 08:31:51;;;;;;;12.48;7.68;;;26.50;67.20;;;;;;4161946;28;20053;-69
2021/12/08 08:33:57;;;;;;;13.90;8.00;;;26.50;66.70;;;;;;4148601;28;20483;-68
2021/12/08 08:36:06;;;;;;;13.38;8.43;;;26.50;66.90;;;;;;4158726;28;20075;-68
2021/12/08 08:38:16;;;;;;;13.07;7.95;;;26.60;67.10;;;;;;4164507;28;20054;-68
2021/12/08 08:40:27;;;;;;;14.75;8.45;;;26.50;67.00;;;;;;4163177;28;20069;-68
2021/12/08 08:42:38;;;;;;;16.65;8.20;;;26.50;67.10;;;;;;4164148;28;20041;-68
2021/12/08 08:44:54;;;;;;;12.43;7.93;;;26.50;67.20;;;;;;4164467;28;20044;-68
2021/12/08 08:47:05;;;;;;;14.23;8.10;;;26.50;67.30;;;;;;4160947;28;20111;-66
2021/12/08 08:49:15;;;;;;;15.13;8.82;;;26.50;67.80;;;;;;4160902;28;20133;-66
2021/12/08 08:51:23;;;;;;;17.25;8.52;;;26.50;67.70;;;;;;4161715;28;20160;-65
2021/12/08 08:53:30;;;;;;;13.70;8.27;;;26.50;67.70;;;;;;4161627;28;20087;-61
2021/12/08 08:55:51;;;;;;;11.40;8.70;;;26.50;67.80;;;;;;4161962;28;20041;-67
2021/12/08 08:58:02;;;;;;;11.57;8.55;;;26.50;67.80;;;;;;4175185;28;20491;-66
2021/12/08 09:00:07;;;;;;;11.52;7.78;;;26.60;67.80;;;;;;4178342;28;20515;-67
2021/12/08 09:02:27;;;;;;;12.30;7.90;;;26.60;67.70;;;;;;4176711;28;20045;-66
2021/12/08 09:04:35;;;;;;;8.52;7.47;;;26.50;67.40;;;;;;4154808;28;20049;-68
2021/12/08 09:06:49;;;;;;;13.60;7.63;;;26.50;67.30;;;;;;4161646;28;20451;-67
2021/12/08 09:09:02;;;;;;;11.35;8.02;;;26.50;67.60;;;;;;4161580;28;20057;-66
2021/12/08 09:11:17;;;;;;;16.45;8.07;;;26.50;67.90;;;;;;4160968;28;20140;-67
2021/12/08 09:13:32;;;;;;;14.00;7.68;;;26.50;68.00;;;;;;4161381;28;20065;-66
2021/12/08 09:15:47;;;;;;;16.10;8.60;;;26.50;68.00;;;;;;4158684;28;20053;-66
2021/12/08 09:18:11;;;;;;;15.27;9.60;;;26.50;67.70;;;;;;4161380;28;20046;-65
2021/12/08 09:20:28;;;;;;;15.40;10.02;;;26.60;67.80;;;;;;4160696;28;20064;-66
2021/12/08 09:22:39;;;;;;;14.75;8.60;;;26.50;67.80;;;;;;4160585;28;20049;-66
2021/12/08 09:24:55;;;;;;;15.77;8.82;;;26.50;67.80;;;;;;4159114;28;20103;-66
2021/12/08 09:27:01;;;;;;;11.95;8.18;;;26.50;67.90;;;;;;4155141;28;20236;-66
2021/12/08 09:29:17;;;;;;;22.02;9.73;;;26.50;68.10;;;;;;4160845;28;20041;-66
2021/12/08 09:31:35;;;;;;;12.17;8.60;;;26.50;68.20;;;;;;4157062;28;20507;-67
2021/12/08 09:33:51;;;;;;;15.38;8.85;;;26.50;68.30;;;;;;4157398;28;20320;-67
2021/12/08 09:36:09;;;;;;;14.65;8.70;;;26.50;68.00;;;;;;4160794;28;20408;-67
2021/12/08 09:38:22;;;;;;;16.17;8.35;;;26.50;68.20;;;;;;4161186;28;20045;-67
2021/12/08 09:40:37;;;;;;;10.25;7.75;;;26.40;68.40;;;;;;4161138;28;20042;-67
2021/12/08 09:42:46;;;;;;;15.57;8.10;;;26.40;68.60;;;;;;4160784;28;20049;-68
2021/12/08 09:44:57;;;;;;;13.63;8.40;;;26.40;68.70;;;;;;4160822;28;20057;-68
2021/12/08 09:47:02;;;;;;;15.88;8.85;;;26.40;68.90;;;;;;4160720;28;20458;-67
2021/12/08 09:49:07;;;;;;;15.48;10.55;;;26.40;69.00;;;;;;4160471;28;20053;-68
2021/12/08 09:51:13;;;;;;;26.60;14.73;;;26.40;69.10;;;;;;4160148;28;20155;-67
2021/12/08 09:53:19;;;;;;;17.30;11.90;;;26.40;68.90;;;;;;4160589;28;20064;-68
2021/12/08 09:55:28;;;;;;;16.45;10.43;;;26.40;69.00;;;;;;4159019;28;20140;-68
2021/12/08 09:57:34;;;;;;;15.57;9.75;;;26.40;69.30;;;;;;4157391;28;20523;-68
2021/12/08 09:59:46;;;;;;;19.38;10.55;;;26.40;69.30;;;;;;4157238;28;20049;-68
2021/12/08 10:01:55;;;;;;;17.92;10.40;;;26.30;69.50;;;;;;4160216;28;20171;-68
2021/12/08 10:04:00;;;;;;;17.70;10.02;;;26.30;69.70;;;;;;4159104;28;20412;-68
2021/12/08 10:06:05;;;;;;;13.98;9.90;;;26.30;69.70;;;;;;4158696;28;20091;-68
2021/12/08 10:08:09;;;;;;;19.02;9.57;;;26.30;69.90;;;;;;4148074;28;20427;-68
2021/12/08 10:10:18;;;;;;;18.60;9.80;;;26.20;69.90;;;;;;4159648;28;20308;-68
2021/12/08 10:12:25;;;;;;;13.63;9.18;;;26.20;70.00;;;;;;4160144;28;20119;-68
2021/12/08 10:14:29;;;;;;;15.35;9.15;;;26.20;70.20;;;;;;4157717;28;20045;-67
2021/12/08 10:16:34;;;;;;;18.55;10.10;;;26.20;70.30;;;;;;4160330;28;20530;-67
2021/12/08 10:18:40;;;;;;;20.42;9.65;;;26.20;70.70;;;;;;4158804;28;20128;-68
2021/12/08 10:20:50;;;;;;;19.75;9.65;;;26.20;70.80;;;;;;4159931;28;20041;-67
2021/12/08 10:23:08;;;;;;;18.98;9.90;;;26.10;70.80;;;;;;4157787;28;20403;-68
2021/12/08 10:25:22;;;;;;;18.02;9.45;;;26.10;70.90;;;;;;4157758;28;20095;-68
2021/12/08 10:27:28;;;;;;;20.35;10.15;;;26.10;70.90;;;;;;4157460;28;20492;-67
2021/12/08 10:29:34;;;;;;;16.08;10.25;;;26.10;71.00;;;;;;4171271;28;20057;-67
2021/12/08 10:31:45;;;;;;;16.92;9.88;;;26.10;71.10;;;;;;4171689;28;20057;-68
2021/12/08 10:34:10;;;;;;;14.18;9.85;;;26.10;71.10;;;;;;4172132;28;20049;-68
2021/12/08 10:38:42;;;;;;;18.17;12.65;;;26.00;71.30;;;;;;4171623;28;20147;-67
2021/12/08 10:41:02;;;;;;;21.80;13.07;;;26.00;71.80;;;;;;4171183;28;20037;-68
2021/12/08 10:43:15;;;;;;;32.55;16.85;;;25.90;72.10;;;;;;4172174;28;20055;-68
2021/12/08 10:45:27;;;;;;;32.78;17.85;;;25.90;72.80;;;;;;4172219;28;20049;-68
2021/12/08 10:47:50;;;;;;;43.42;18.00;;;25.90;73.20;;;;;;4172303;28;20082;-68
2021/12/08 10:54:30;;;;;;;44.95;18.50;;;25.80;74.20;;;;;;4171316;28;20083;-68
2021/12/08 10:56:42;;;;;;;47.25;17.05;;;25.80;74.60;;;;;;4171393;28;20490;-68
2021/12/08 10:58:50;;;;;;;34.42;17.23;;;25.70;74.90;;;;;;4169525;28;20051;-68
2021/12/08 11:00:56;;;;;;;45.53;18.42;;;25.70;75.10;;;;;;4162494;28;20194;-69
2021/12/08 11:03:08;;;;;;;35.33;20.20;;;25.60;75.20;;;;;;4154794;28;20084;-68
2021/12/08 11:05:25;;;;;;;43.85;19.98;;;25.60;75.30;;;;;;4157582;28;20045;-69
2021/12/08 11:07:31;;;;;;;44.10;21.88;;;25.60;75.40;;;;;;4155400;28;20044;-68
2021/12/08 11:09:42;;;;;;;38.22;22.38;;;25.60;75.50;;;;;;4156293;28;20057;-68
2021/12/08 11:12:03;;;;;;;36.55;21.17;;;25.60;75.60;;;;;;4157555;28;20136;-67
2021/12/08 11:14:16;;;;;;;35.40;20.75;;;25.50;75.90;;;;;;4155393;28;20508;-69
2021/12/08 11:16:31;;;;;;;30.60;19.02;;;25.50;76.20;;;;;;4157187;28;20045;-68
2021/12/08 11:18:41;;;;;;;34.30;21.95;;;25.50;76.50;;;;;;4155600;28;20087;-68
2021/12/08 11:20:48;;;;;;;39.10;20.42;;;25.40;76.70;;;;;;4155722;28;20041;-68
2021/12/08 11:23:04;;;;;;;40.42;20.27;;;25.40;76.90;;;;;;4157837;28;20147;-69
2021/12/08 11:25:21;;;;;;;33.45;17.40;;;25.40;77.30;;;;;;4156893;28;20384;-68
2021/12/08 11:27:33;;;;;;;33.85;16.77;;;25.30;77.30;;;;;;4157299;28;20053;-68
2021/12/08 11:29:42;;;;;;;25.60;16.13;;;25.30;77.40;;;;;;4156587;28;20056;-68
2021/12/08 11:31:59;;;;;;;31.40;17.50;;;25.20;77.70;;;;;;4157826;28;20474;-68
2021/12/08 11:34:10;;;;;;;36.47;17.75;;;25.20;77.90;;;;;;4158032;28;20064;-69
2021/12/08 11:36:16;;;;;;;35.25;17.10;;;25.20;78.20;;;;;;4157751;28;20049;-69
2021/12/08 11:38:25;;;;;;;34.83;17.50;;;25.20;78.20;;;;;;4158263;28;20053;-69
2021/12/08 11:40:36;;;;;;;26.02;17.20;;;25.20;78.40;;;;;;4157409;28;20072;-68
2021/12/08 11:42:41;;;;;;;33.17;18.67;;;25.20;78.70;;;;;;4157486;28;20080;-68
2021/12/08 11:44:51;;;;;;;55.55;19.25;;;25.20;78.60;;;;;;4157093;28;20286;-69
2021/12/08 11:46:57;;;;;;;42.03;18.38;;;25.10;78.50;;;;;;4157766;28;20046;-68
2021/12/08 11:49:08;;;;;;;35.53;19.42;;;25.10;78.90;;;;;;4157948;28;20053;-68
2021/12/08 11:51:15;;;;;;;32.33;19.52;;;25.10;79.00;;;;;;4158120;28;20049;-68
2021/12/08 11:53:21;;;;;;;33.03;19.02;;;25.10;79.20;;;;;;4155646;28;20132;-68
2021/12/08 11:55:29;;;;;;;40.40;20.13;;;25.00;79.30;;;;;;4157781;28;20057;-68